createdAt,value
2023-05-15T00:01:39.091Z,6.32
2023-05-15T00:04:06.111Z,5.45
2023-05-15T00:06:33.212Z,6.07
2023-05-15T00:09:00.343Z,6.40
2023-05-15T00:11:28.016Z,5.97
2023-05-15T00:13:55.143Z,5.93
2023-05-15T00:16:22.365Z,5.85
2023-05-15T00:18:49.432Z,5.43
2023-05-15T00:21:17.073Z,5.68
2023-05-15T00:23:44.230Z,6.07
2023-05-15T00:26:11.290Z,5.63
2023-05-15T00:28:38.304Z,5.63
2023-05-15T00:31:05.404Z,5.78
2023-05-15T00:33:32.496Z,6.05
2023-05-15T00:35:59.505Z,6.05
2023-05-15T00:38:26.559Z,6.75
2023-05-15T00:40:55.530Z,7.00
2023-05-15T00:43:23.775Z,7.32
2023-05-15T00:45:51.520Z,6.63
2023-05-15T00:48:22.646Z,6.50
2023-05-15T00:50:53.445Z,7.68
2023-05-15T00:53:20.600Z,8.10
2023-05-15T00:55:48.044Z,7.40
2023-05-15T00:58:17.144Z,6.90
2023-05-15T01:00:46.564Z,7.15
2023-05-15T01:03:14.033Z,7.45
2023-05-15T01:05:41.455Z,7.95
2023-05-15T01:08:48.041Z,7.05
2023-05-15T01:11:17.170Z,7.45
2023-05-15T01:13:48.447Z,7.85
2023-05-15T01:16:15.631Z,7.95
2023-05-15T01:18:42.934Z,7.28
2023-05-15T01:21:15.776Z,7.85
2023-05-15T01:24:04.162Z,7.50
2023-05-15T01:27:11.294Z,6.45
2023-05-15T01:30:04.821Z,7.07
2023-05-15T01:33:09.275Z,8.15
2023-05-15T01:35:52.179Z,7.07
2023-05-15T01:38:35.361Z,6.45
2023-05-15T01:41:24.377Z,7.22
2023-05-15T01:44:14.965Z,7.00
2023-05-15T01:46:49.609Z,7.47
2023-05-15T01:49:20.110Z,7.10
2023-05-15T01:51:51.070Z,7.88
2023-05-15T01:54:19.243Z,7.85
2023-05-15T01:56:46.520Z,7.40
2023-05-15T01:59:15.842Z,7.97
2023-05-15T02:01:44.855Z,7.40
2023-05-15T02:04:12.540Z,7.70
2023-05-15T02:06:40.950Z,8.25
2023-05-15T02:09:09.451Z,7.55
2023-05-15T02:11:37.275Z,8.27
2023-05-15T02:14:05.607Z,8.45
2023-05-15T02:16:32.739Z,7.15
2023-05-15T02:18:59.861Z,9.07
2023-05-15T02:21:26.936Z,6.82
2023-05-15T02:23:53.963Z,7.72
2023-05-15T02:26:39.062Z,6.93
2023-05-15T02:29:42.559Z,6.68
2023-05-15T02:32:48.001Z,6.47
2023-05-15T02:35:53.387Z,6.80
2023-05-15T02:38:29.332Z,6.97
2023-05-15T02:40:58.058Z,7.43
2023-05-15T02:43:26.252Z,6.93
2023-05-15T02:45:54.246Z,6.70
2023-05-15T02:48:22.111Z,5.97
2023-05-15T02:50:49.203Z,6.40
2023-05-15T02:53:16.316Z,7.10
2023-05-15T02:55:43.488Z,6.82
2023-05-15T02:58:11.065Z,6.45
2023-05-15T03:00:38.204Z,6.22
2023-05-15T03:03:06.558Z,6.20
2023-05-15T03:05:33.590Z,5.57
2023-05-15T03:08:01.023Z,6.03
2023-05-15T03:10:28.063Z,6.28
2023-05-15T03:12:59.619Z,5.97
2023-05-15T03:15:26.902Z,5.50
2023-05-15T03:17:54.244Z,5.85
2023-05-15T03:20:21.454Z,6.43
2023-05-15T03:22:48.492Z,5.45
2023-05-15T03:25:16.306Z,5.50
2023-05-15T03:27:43.387Z,5.55
2023-05-15T03:30:10.969Z,5.35
2023-05-15T03:32:38.083Z,6.32
2023-05-15T03:35:05.735Z,5.80
2023-05-15T03:37:33.036Z,6.45
2023-05-15T03:40:00.071Z,6.57
2023-05-15T03:42:27.952Z,6.38
2023-05-15T03:44:56.347Z,6.68
2023-05-15T03:47:23.615Z,6.30
2023-05-15T03:49:50.665Z,6.70
2023-05-15T03:52:17.768Z,7.22
2023-05-15T03:54:44.863Z,7.15
2023-05-15T03:57:12.299Z,8.13
2023-05-15T03:59:39.384Z,6.75
2023-05-15T04:02:06.671Z,6.90
2023-05-15T04:04:33.778Z,5.68
2023-05-15T04:07:02.332Z,5.90
2023-05-15T04:09:29.337Z,4.68
2023-05-15T04:11:56.481Z,3.88
2023-05-15T04:14:23.483Z,3.95
2023-05-15T04:16:50.982Z,3.42
2023-05-15T04:19:18.213Z,3.17
2023-05-15T04:21:45.273Z,3.90
2023-05-15T04:24:12.963Z,3.50
2023-05-15T04:26:40.022Z,3.90
2023-05-15T04:29:07.172Z,3.65
2023-05-15T04:31:35.164Z,3.20
2023-05-15T04:34:03.924Z,3.40
2023-05-15T04:36:31.749Z,3.45
2023-05-15T04:39:01.427Z,3.58
2023-05-15T04:41:28.459Z,4.20
2023-05-15T04:43:56.012Z,4.10
2023-05-15T04:46:23.351Z,3.80
2023-05-15T04:48:50.861Z,3.53
2023-05-15T04:51:17.875Z,3.22
2023-05-15T04:53:44.875Z,2.50
2023-05-15T04:56:12.191Z,2.80
2023-05-15T04:58:39.180Z,2.67
2023-05-15T05:01:06.289Z,2.92
2023-05-15T05:03:33.479Z,2.42
2023-05-15T05:06:00.659Z,2.80
2023-05-15T05:08:27.664Z,2.50
2023-05-15T05:10:57.460Z,2.83
2023-05-15T05:13:24.535Z,2.70
2023-05-15T05:15:51.568Z,2.53
2023-05-15T05:18:18.782Z,2.30
2023-05-15T05:20:45.850Z,2.50
2023-05-15T05:23:14.891Z,2.28
2023-05-15T05:25:42.171Z,2.30
2023-05-15T05:28:09.155Z,2.20
2023-05-15T05:30:36.173Z,2.22
2023-05-15T05:33:03.321Z,2.08
2023-05-15T05:35:30.443Z,2.17
2023-05-15T05:37:57.522Z,1.45
2023-05-15T05:40:24.593Z,1.10
2023-05-15T05:42:51.751Z,0.90
2023-05-15T05:45:18.788Z,1.00
2023-05-15T05:47:45.821Z,0.93
2023-05-15T05:50:12.876Z,0.80
2023-05-15T05:52:40.057Z,0.55
2023-05-15T05:55:10.208Z,0.75
2023-05-15T05:57:37.393Z,0.80
2023-05-15T06:00:09.699Z,0.70
2023-05-15T06:02:40.756Z,0.90
2023-05-15T06:05:08.600Z,0.80
2023-05-15T06:07:35.879Z,0.80
2023-05-15T06:10:02.998Z,0.70
2023-05-15T06:12:30.085Z,0.70
2023-05-15T06:14:57.103Z,0.90
2023-05-15T06:17:24.148Z,0.70
2023-05-15T06:19:51.210Z,0.85
2023-05-15T06:22:18.248Z,0.80
2023-05-15T06:24:45.921Z,0.43
2023-05-15T06:27:12.972Z,0.60
2023-05-15T06:29:40.015Z,0.70
2023-05-15T06:32:07.405Z,0.43
2023-05-15T06:34:34.550Z,0.60
2023-05-15T06:37:02.245Z,0.52
2023-05-15T06:39:29.268Z,0.50
2023-05-15T06:42:01.181Z,0.70
2023-05-15T06:44:29.989Z,0.65
2023-05-15T06:46:58.062Z,0.60
2023-05-15T06:49:26.778Z,0.57
2023-05-15T06:51:55.045Z,0.50
2023-05-15T06:54:22.126Z,0.70
2023-05-15T06:56:49.184Z,0.77
2023-05-15T06:59:16.325Z,0.60
2023-05-15T07:01:43.459Z,0.80
2023-05-15T07:04:12.782Z,0.80
2023-05-15T07:06:39.895Z,1.00
2023-05-15T07:09:06.981Z,0.82
2023-05-15T07:11:37.306Z,0.80
2023-05-15T07:14:06.366Z,0.98
2023-05-15T07:16:33.359Z,0.98
2023-05-15T07:19:01.362Z,0.93
2023-05-15T07:21:28.473Z,0.90
2023-05-15T07:23:55.477Z,1.00
2023-05-15T07:26:34.385Z,0.90
2023-05-15T07:29:04.225Z,0.90
2023-05-15T07:31:32.108Z,0.80
2023-05-15T07:33:59.179Z,1.10
2023-05-15T07:36:26.290Z,0.95
2023-05-15T07:38:53.337Z,1.10
2023-05-15T07:41:20.833Z,0.90
2023-05-15T07:43:47.850Z,0.73
2023-05-15T07:46:14.948Z,0.93
2023-05-15T07:48:41.957Z,0.93
2023-05-15T07:51:09.835Z,1.17
2023-05-15T07:53:36.866Z,1.00
2023-05-15T07:56:04.243Z,0.85
2023-05-15T07:58:31.264Z,1.05
2023-05-15T08:00:58.264Z,1.10
2023-05-15T08:03:25.592Z,0.95
2023-05-15T08:05:52.708Z,1.20
2023-05-15T08:08:19.876Z,1.20
2023-05-15T08:10:46.917Z,1.20
2023-05-15T08:13:13.912Z,1.50
2023-05-15T08:15:41.000Z,1.40
2023-05-15T08:18:11.637Z,0.93
2023-05-15T08:20:39.128Z,1.42
2023-05-15T08:23:06.161Z,1.65
2023-05-15T08:25:33.183Z,1.50
2023-05-15T08:28:00.386Z,1.45
2023-05-15T08:30:27.655Z,1.23
2023-05-15T08:32:54.727Z,1.40
2023-05-15T08:35:21.808Z,1.25
2023-05-15T08:37:48.901Z,1.60
2023-05-15T08:40:16.285Z,1.20
2023-05-15T08:42:55.494Z,0.85
2023-05-15T08:45:23.036Z,0.75
2023-05-15T08:47:50.215Z,0.80
2023-05-15T08:50:17.776Z,0.80
2023-05-15T08:52:47.769Z,0.93
2023-05-15T08:55:16.501Z,0.77
2023-05-15T08:57:45.194Z,0.60
2023-05-15T09:00:14.739Z,0.60
2023-05-15T09:02:42.983Z,0.57
2023-05-15T09:05:10.880Z,0.70
2023-05-15T09:07:43.462Z,0.50
2023-05-15T09:10:11.224Z,0.60
2023-05-15T09:12:44.478Z,0.57
2023-05-15T09:15:17.958Z,0.70
2023-05-15T09:17:46.145Z,0.50
2023-05-15T09:20:45.558Z,0.50
2023-05-15T09:23:27.673Z,0.70
2023-05-15T09:25:57.040Z,0.55
2023-05-15T09:28:32.856Z,0.77
2023-05-15T09:31:05.636Z,0.63
2023-05-15T09:33:39.710Z,0.80
2023-05-15T09:36:08.894Z,1.00
2023-05-15T09:38:48.398Z,0.70
2023-05-15T09:41:24.243Z,0.85
2023-05-15T09:46:18.337Z,0.90
2023-05-15T09:48:48.668Z,1.00
2023-05-15T09:51:18.590Z,1.13
2023-05-15T09:53:55.379Z,0.60
2023-05-15T09:56:22.499Z,0.68
2023-05-15T09:58:59.279Z,0.80
2023-05-15T10:01:27.816Z,0.60
2023-05-15T10:04:03.627Z,0.80
2023-05-15T10:09:05.940Z,0.60
2023-05-15T10:11:39.038Z,0.70
2023-05-15T10:14:09.429Z,0.70
2023-05-15T10:16:38.795Z,0.70
2023-05-15T10:19:08.851Z,0.60
2023-05-15T10:21:38.689Z,0.60
2023-05-15T10:24:07.072Z,0.70
2023-05-15T10:26:40.497Z,0.65
2023-05-15T10:29:14.347Z,0.60
2023-05-15T10:31:42.725Z,0.60
2023-05-15T10:34:11.204Z,0.60
2023-05-15T10:36:39.024Z,0.73
2023-05-15T10:39:07.597Z,0.55
2023-05-15T10:41:39.223Z,0.50
2023-05-15T10:44:06.520Z,0.50
2023-05-15T10:46:36.885Z,0.40
2023-05-15T10:49:05.262Z,0.70
2023-05-15T10:51:33.548Z,0.70
2023-05-15T10:54:03.851Z,0.60
2023-05-15T10:56:32.600Z,0.50
2023-05-15T10:59:10.071Z,0.40
2023-05-15T11:01:39.554Z,0.40
2023-05-15T11:04:19.616Z,0.50
2023-05-15T11:06:48.913Z,0.50
2023-05-15T11:09:21.928Z,0.60
2023-05-15T11:11:52.367Z,0.52
2023-05-15T11:14:19.976Z,0.50
2023-05-15T11:16:57.508Z,0.40
2023-05-15T11:19:48.912Z,0.70
2023-05-15T11:22:18.101Z,0.50
2023-05-15T11:25:05.603Z,0.60
2023-05-15T11:27:41.602Z,0.63
2023-05-15T11:30:23.011Z,0.52
2023-05-15T11:32:59.540Z,0.50
2023-05-15T11:35:43.533Z,0.52
2023-05-15T11:38:10.525Z,0.40
2023-05-15T11:40:56.520Z,0.63
2023-05-15T11:43:35.975Z,0.55
2023-05-15T11:46:07.932Z,0.38
2023-05-15T11:48:50.157Z,0.32
2023-05-15T11:51:22.068Z,0.50
2023-05-15T11:53:51.534Z,0.50
2023-05-15T11:56:30.991Z,0.60
2023-05-15T11:59:01.298Z,0.50
2023-05-15T12:01:38.474Z,0.40
2023-05-15T12:04:17.230Z,0.38
2023-05-15T12:06:47.344Z,0.50
2023-05-15T12:09:19.436Z,0.45
2023-05-15T12:11:52.712Z,0.57
2023-05-15T12:14:30.408Z,0.20
2023-05-15T12:17:04.658Z,0.60
2023-05-15T12:19:34.345Z,0.38
2023-05-15T12:22:01.385Z,0.30
2023-05-15T12:24:28.394Z,0.40
2023-05-15T12:26:57.428Z,0.40
2023-05-15T12:29:26.532Z,0.30
2023-05-15T12:31:54.209Z,0.30
2023-05-15T12:34:21.934Z,0.32
2023-05-15T12:36:49.005Z,0.30
2023-05-15T12:39:16.135Z,0.30
2023-05-15T12:41:46.765Z,0.40
2023-05-15T12:44:18.535Z,0.40
2023-05-15T12:46:48.538Z,0.40
2023-05-15T12:49:22.821Z,0.30
2023-05-15T12:51:50.226Z,0.20
2023-05-15T12:54:26.368Z,0.20
2023-05-15T12:56:53.620Z,0.40
2023-05-15T12:59:21.342Z,0.30
2023-05-15T13:01:48.479Z,0.25
2023-05-15T13:04:16.549Z,0.52
2023-05-15T13:06:46.925Z,0.32
2023-05-15T13:09:21.153Z,0.30
2023-05-15T13:11:48.442Z,0.30
2023-05-15T13:14:18.158Z,0.40
2023-05-15T13:16:46.848Z,0.30
2023-05-15T13:19:14.547Z,0.40
2023-05-15T13:21:41.695Z,0.30
2023-05-15T13:24:10.776Z,0.30
2023-05-15T13:26:38.050Z,0.52
2023-05-15T13:29:05.297Z,0.28
2023-05-15T13:31:32.577Z,0.22
2023-05-15T13:33:59.615Z,0.20
2023-05-15T13:36:26.735Z,0.20
2023-05-15T13:38:53.757Z,0.40
2023-05-15T13:41:21.152Z,0.30
2023-05-15T13:43:49.315Z,0.20
2023-05-15T13:46:16.642Z,0.45
2023-05-15T13:48:43.819Z,0.30
2023-05-15T13:51:10.867Z,0.30
2023-05-15T13:53:37.911Z,0.20
2023-05-15T13:56:05.325Z,0.20
2023-05-15T13:58:35.351Z,0.28
2023-05-15T14:01:07.313Z,0.20
2023-05-15T14:03:34.706Z,0.40
2023-05-15T14:06:01.886Z,0.30
2023-05-15T14:08:28.981Z,0.38
2023-05-15T14:10:56.281Z,0.60
2023-05-15T14:13:24.347Z,0.45
2023-05-15T14:15:51.449Z,0.50
2023-05-15T14:18:18.534Z,0.30
2023-05-15T14:20:45.677Z,0.50
2023-05-15T14:23:12.713Z,1.13
2023-05-15T14:25:41.169Z,0.28
2023-05-15T14:28:08.228Z,0.47
2023-05-15T14:30:35.311Z,0.30
2023-05-15T14:33:02.376Z,0.40
2023-05-15T14:35:29.422Z,0.73
2023-05-15T14:37:57.234Z,0.40
2023-05-15T14:40:24.388Z,0.40
2023-05-15T14:42:51.611Z,0.40
2023-05-15T14:45:18.761Z,0.40
2023-05-15T14:47:45.865Z,0.60
2023-05-15T14:50:12.917Z,0.30
2023-05-15T14:52:39.977Z,0.50
2023-05-15T14:55:09.315Z,0.30
2023-05-15T14:57:38.094Z,0.50
2023-05-15T15:00:07.146Z,0.50
2023-05-15T15:02:34.491Z,0.57
2023-05-15T15:05:01.684Z,0.73
2023-05-15T15:07:32.845Z,0.30
2023-05-15T15:09:59.906Z,0.50
2023-05-15T15:12:27.624Z,0.70
2023-05-15T15:14:54.741Z,0.55
2023-05-15T15:17:21.763Z,0.50
2023-05-15T15:19:48.903Z,0.50
2023-05-15T15:22:15.999Z,0.50
2023-05-15T15:24:43.010Z,0.40
2023-05-15T15:27:10.057Z,0.50
2023-05-15T15:29:37.158Z,0.60
2023-05-15T15:32:04.520Z,0.50
2023-05-15T15:34:31.579Z,0.40
2023-05-15T15:36:58.589Z,0.30
2023-05-15T15:39:25.649Z,0.65
2023-05-15T15:41:52.729Z,0.40
2023-05-15T15:44:19.753Z,0.80
2023-05-15T15:46:46.813Z,0.45
2023-05-15T15:49:13.911Z,0.52
2023-05-15T15:51:43.871Z,0.60
2023-05-15T15:54:11.310Z,0.70
2023-05-15T15:56:38.362Z,0.50
2023-05-15T15:59:05.751Z,0.70
2023-05-15T16:01:33.319Z,0.70
2023-05-15T16:04:00.888Z,0.63
2023-05-15T16:06:28.193Z,0.70
2023-05-15T16:08:55.301Z,0.95
2023-05-15T16:11:22.466Z,0.50
2023-05-15T16:13:52.670Z,0.80
2023-05-15T16:16:19.876Z,0.70
2023-05-15T16:18:47.511Z,1.13
2023-05-15T16:21:15.734Z,0.60
2023-05-15T16:23:43.707Z,1.08
2023-05-15T16:26:11.607Z,1.38
2023-05-15T16:28:39.172Z,0.70
2023-05-15T16:31:07.176Z,1.02
2023-05-15T16:33:35.056Z,0.82
2023-05-15T16:36:05.615Z,0.70
2023-05-15T16:38:33.495Z,0.80
2023-05-15T16:41:02.034Z,0.80
2023-05-15T16:43:30.497Z,0.70
2023-05-15T16:45:59.820Z,1.02
2023-05-15T16:48:28.651Z,0.80
2023-05-15T16:50:56.764Z,0.90
2023-05-15T16:53:26.929Z,1.23
2023-05-15T16:55:54.896Z,1.35
2023-05-15T16:58:23.675Z,2.67
2023-05-15T17:00:51.611Z,1.02
2023-05-15T17:03:20.157Z,1.55
2023-05-15T17:05:49.073Z,0.90
2023-05-15T17:08:17.070Z,0.93
2023-05-15T17:10:45.071Z,0.80
2023-05-15T17:13:16.054Z,0.73
2023-05-15T17:15:44.150Z,0.75
2023-05-15T17:18:12.144Z,1.10
2023-05-15T17:20:40.159Z,1.10
2023-05-15T17:23:08.195Z,0.90
2023-05-15T17:25:36.265Z,0.95
2023-05-15T17:28:04.239Z,0.95
2023-05-15T17:30:32.610Z,0.90
2023-05-15T17:33:01.034Z,0.82
2023-05-15T17:35:31.456Z,1.08
2023-05-15T17:38:01.194Z,1.20
2023-05-15T17:40:29.240Z,1.08
2023-05-15T17:42:57.281Z,1.10
2023-05-15T17:45:25.597Z,1.00
2023-05-15T17:47:53.796Z,1.27
2023-05-15T17:50:21.848Z,0.90
2023-05-15T17:52:50.314Z,1.30
2023-05-15T17:55:18.434Z,1.10
2023-05-15T17:57:47.067Z,1.42
2023-05-15T18:00:16.917Z,1.00
2023-05-15T18:02:45.281Z,0.95
2023-05-15T18:05:13.325Z,1.08
2023-05-15T18:07:43.002Z,1.33
2023-05-15T18:10:11.367Z,1.20
2023-05-15T18:12:39.474Z,1.30
2023-05-15T18:15:08.341Z,1.40
2023-05-15T18:17:36.553Z,1.20
2023-05-15T18:20:06.300Z,1.40
2023-05-15T18:22:35.043Z,1.42
2023-05-15T18:25:03.369Z,1.42
2023-05-15T18:27:31.900Z,1.20
2023-05-15T18:30:00.085Z,1.17
2023-05-15T18:32:28.216Z,1.40
2023-05-15T18:34:56.411Z,1.40
2023-05-15T18:37:24.647Z,1.25
2023-05-15T18:39:53.107Z,1.52
2023-05-15T18:42:21.176Z,1.88
2023-05-15T18:44:52.397Z,1.40
2023-05-15T18:47:20.685Z,1.38
2023-05-15T18:49:48.725Z,1.80
2023-05-15T18:52:17.055Z,1.45
2023-05-15T18:54:45.848Z,1.60
2023-05-15T18:57:17.435Z,1.60
2023-05-15T18:59:46.103Z,1.67
2023-05-15T19:02:14.561Z,1.80
2023-05-15T19:04:42.724Z,1.83
2023-05-15T19:07:10.787Z,1.92
2023-05-15T19:09:38.948Z,1.90
2023-05-15T19:12:07.535Z,2.35
2023-05-15T19:14:36.698Z,1.98
2023-05-15T19:17:04.959Z,1.75
2023-05-15T19:19:33.057Z,1.80
2023-05-15T19:22:01.696Z,2.33
2023-05-15T19:24:32.031Z,2.50
2023-05-15T19:27:01.754Z,2.10
2023-05-15T19:29:32.043Z,1.70
2023-05-15T19:32:02.096Z,1.85
2023-05-15T19:34:30.701Z,1.88
2023-05-15T19:36:58.722Z,2.22
2023-05-15T19:39:26.868Z,1.90
2023-05-15T19:41:56.422Z,2.30
2023-05-15T19:44:24.521Z,2.33
2023-05-15T19:46:54.599Z,1.98
2023-05-15T19:49:22.714Z,2.30
2023-05-15T19:51:50.719Z,2.35
2023-05-15T19:54:18.850Z,2.33
2023-05-15T19:56:47.003Z,2.35
2023-05-15T19:59:15.194Z,1.80
2023-05-15T20:01:43.366Z,2.22
2023-05-15T20:04:14.290Z,2.35
2023-05-15T20:06:42.600Z,2.45
2023-05-15T20:09:10.808Z,2.40
2023-05-15T20:11:38.867Z,2.38
2023-05-15T20:14:06.938Z,2.53
2023-05-15T20:16:35.183Z,2.10
2023-05-15T20:19:04.699Z,2.35
2023-05-15T20:21:32.908Z,1.85
2023-05-15T20:24:00.981Z,2.40
2023-05-15T20:26:29.124Z,2.65
2023-05-15T20:28:57.238Z,2.60
2023-05-15T20:31:25.338Z,2.42
2023-05-15T20:33:53.421Z,2.78
2023-05-15T20:36:23.348Z,2.38
2023-05-15T20:38:52.822Z,2.42
2023-05-15T20:41:23.055Z,2.50
2023-05-15T20:43:51.483Z,2.83
2023-05-15T20:46:19.620Z,2.95
2023-05-15T20:48:47.672Z,2.75
2023-05-15T20:51:16.564Z,2.88
2023-05-15T20:53:44.585Z,2.75
2023-05-15T20:56:12.546Z,3.58
2023-05-15T20:58:40.403Z,3.55
2023-05-15T21:01:07.767Z,3.80
2023-05-15T21:03:34.943Z,3.53
2023-05-15T21:06:02.468Z,2.83
2023-05-15T21:08:29.817Z,2.70
2023-05-15T21:10:56.829Z,3.03
2023-05-15T21:13:23.880Z,2.78
2023-05-15T21:15:51.372Z,3.00
2023-05-15T21:18:18.930Z,2.95
2023-05-15T21:20:46.097Z,3.40
2023-05-15T21:23:13.432Z,3.05
2023-05-15T21:25:42.803Z,2.88
2023-05-15T21:28:10.136Z,3.20
2023-05-15T21:30:37.229Z,3.28
2023-05-15T21:33:04.369Z,3.20
2023-05-15T21:35:31.794Z,3.03
2023-05-15T21:37:59.513Z,3.60
2023-05-15T21:40:26.724Z,3.30
2023-05-15T21:42:53.871Z,3.35
2023-05-15T21:45:21.108Z,3.50
2023-05-15T21:47:48.167Z,3.40
2023-05-15T21:50:15.199Z,2.85
2023-05-15T21:52:42.556Z,2.90
2023-05-15T21:55:09.922Z,3.17
2023-05-15T21:57:37.133Z,3.00
2023-05-15T22:00:07.278Z,3.28
2023-05-15T22:02:34.976Z,3.15
2023-05-15T22:05:02.976Z,3.20
2023-05-15T22:07:30.157Z,3.60
2023-05-15T22:09:57.339Z,3.30
2023-05-15T22:12:24.471Z,3.15
2023-05-15T22:14:58.808Z,2.90
2023-05-15T22:17:29.041Z,3.77
2023-05-15T22:20:06.620Z,3.20
2023-05-15T22:22:35.563Z,3.63
2023-05-15T22:25:02.724Z,3.30
2023-05-15T22:27:30.113Z,3.03
2023-05-15T22:29:57.290Z,3.70
2023-05-15T22:32:24.656Z,3.50
2023-05-15T22:34:51.955Z,3.20
2023-05-15T22:37:19.096Z,3.80
2023-05-15T22:39:46.156Z,3.42
2023-05-15T22:42:13.255Z,3.00
2023-05-15T22:44:40.388Z,2.90
2023-05-15T22:47:07.803Z,3.25
2023-05-15T22:49:34.834Z,3.08
2023-05-15T22:52:02.059Z,2.88
2023-05-15T22:54:29.195Z,2.63
2023-05-15T22:56:56.441Z,2.58
2023-05-15T22:59:23.567Z,2.80
2023-05-15T23:01:50.677Z,2.70
2023-05-15T23:04:17.981Z,2.80
2023-05-15T23:06:45.792Z,2.63
2023-05-15T23:09:12.776Z,1.92
2023-05-15T23:11:39.822Z,2.13
2023-05-15T23:14:08.206Z,2.50
2023-05-15T23:16:35.777Z,2.30
2023-05-15T23:19:02.882Z,2.03
2023-05-15T23:21:30.051Z,2.20
2023-05-15T23:23:57.087Z,1.98
2023-05-15T23:26:24.086Z,2.08
2023-05-15T23:28:51.502Z,2.30
2023-05-15T23:31:18.608Z,2.08
2023-05-15T23:33:45.724Z,2.25
2023-05-15T23:36:12.753Z,2.05
2023-05-15T23:38:40.072Z,2.08
2023-05-15T23:41:07.077Z,2.17
2023-05-15T23:43:34.185Z,2.63
2023-05-15T23:46:01.234Z,1.92
2023-05-15T23:48:28.414Z,2.25
2023-05-15T23:50:55.408Z,1.83
2023-05-15T23:53:22.812Z,2.05
2023-05-15T23:55:49.837Z,1.88
2023-05-15T23:58:16.866Z,2.10
